• Join FlightAware (Why Join?)
  • Login
  • US Flag 
10:55PM EDT


 

Airport Tracker/Info


-or-


 

Live Flight TrackerFlight Track Log ✈ AAL2360 ✈ 11-Jun-2013 ✈ KDFW - KORD

Flight Track Log - Related Links

Times and Time Zones

All times are in EDT time to prevent confusion due to time zone crossing. See the AAL2360 flight status page for this flight to view local times or setup timezone preferences in your user account.

Time Position Orientation Groundspeed Altitude Reporting Facility
EDT Latitude Longitude Course Direction KTS MPH feet Rate Location/Type
03:40PM 32.8667 -97.0333 357° North 177 204 1,500  Level Dallas / Fort Worth TRACON
03:41PM 32.8167 -97.0000 151° Southeast 229 264 3,500 2,280 Climbing Dallas / Fort Worth TRACON
03:42PM 32.8409 -96.8018 10° North  Level FlightAware Approximate
03:42PM 32.7667 -96.9500 140° Southeast 270 311 6,200  Level Dallas / Fort Worth TRACON
03:43PM 32.9561 -96.8000 North  Level FlightAware Approximate
03:43PM 32.7667 -96.8667 90° East 281 323 9,100  Level Dallas / Fort Worth TRACON
03:44PM 33.0713 -96.8003 357° North  Level FlightAware Approximate
03:44PM 32.9031 -96.8147 18° North 358 412 11,300  Level Fort Worth Center
03:45PM 33.1863 -96.8085 357° North  Level FlightAware Approximate
03:45PM 33.0261 -96.8114 North 390 449 13,900  Level Fort Worth Center
03:46PM 33.1408 -96.8181 357° North 405 466 15,900 2,100 Climbing Fort Worth Center
03:47PM 33.2578 -96.8172 360° North 418 481 18,200 2,100 Climbing Fort Worth Center
03:48PM 33.3811 -96.8239 357° North 427 491 20,100 2,040 Climbing Fort Worth Center
03:49PM 33.4956 -96.7933 13° North 427 491 22,300 1,800 Climbing Fort Worth Center
03:50PM 33.6058 -96.7275 26° Northeast 422 486 23,700 1,380 Climbing Fort Worth Center
03:51PM 33.7058 -96.6619 29° Northeast 435 501 25,100 1,680 Climbing Fort Worth Center
03:52PM 33.8264 -96.5808 29° Northeast 450 518 27,100 1,800 Climbing Fort Worth Center
03:53PM 33.9322 -96.5147 27° Northeast 444 511 28,800 1,440 Climbing Fort Worth Center
03:54PM 34.0444 -96.4383 29° Northeast 444 511 30,000 1,200 Climbing Fort Worth Center
03:55PM 34.1503 -96.3569 32° Northeast 451 519 31,200 960 Climbing Fort Worth Center
03:56PM 34.2536 -96.2703 35° Northeast 451 519 32,000 660 Climbing Fort Worth Center
03:57PM 34.3572 -96.1858 34° Northeast 451 519 32,600 480 Climbing Fort Worth Center
03:58PM 34.4628 -96.0986 34° Northeast 451 519 33,000 180 Climbing Fort Worth Center
03:59PM 34.5683 -96.0139 33° Northeast 456 525 33,000  Level Fort Worth Center
04:00PM 34.6736 -95.9264 34° Northeast 461 531 33,000  Level Fort Worth Center
04:01PM 34.7769 -95.8386 35° Northeast 461 531 33,000  Level Fort Worth Center
04:02PM 34.8800 -95.7506 35° Northeast 461 531 33,000  Level Fort Worth Center
04:04PM 35.0519 -95.5886 38° Northeast 455 524 33,000  Level Kansas City Center
04:05PM 35.1719 -95.4764 37° Northeast 453 521 33,000  Level Kansas City Center
04:06PM 35.2725 -95.3806 38° Northeast 456 525 33,000  Level Kansas City Center
04:07PM 35.3733 -95.2844 38° Northeast 458 527 33,000  Level Kansas City Center
04:08PM 35.4731 -95.1894 38° Northeast 456 525 33,000  Level Kansas City Center
04:09PM 35.5736 -95.0919 38° Northeast 459 528 33,000  Level Kansas City Center
04:10PM 35.6742 -94.9958 38° Northeast 458 527 33,000  Level Kansas City Center
04:11PM 35.7947 -94.8803 38° Northeast 460 529 33,000  Level Kansas City Center
04:12PM 35.8967 -94.7825 38° Northeast 454 522 33,000  Level Memphis Center
04:13PM 35.9981 -94.6853 38° Northeast 454 522 33,000  Level Memphis Center
04:14PM 36.0972 -94.5878 38° Northeast 454 522 33,000  Level Memphis Center
04:16PM 36.1953 -94.4911 38° Northeast 460 529 33,100 540 Climbing Kansas City Center
04:17PM 36.3144 -94.3758 38° Northeast 456 525 34,300 840 Climbing Kansas City Center
04:18PM 36.4108 -94.2800 39° Northeast 450 518 34,900 300 Climbing Kansas City Center
04:19PM 36.5081 -94.1844 38° Northeast 447 514 35,000  Climbing Kansas City Center
04:20PM 36.6036 -94.0892 39° Northeast 445 512 35,000  Level Kansas City Center
04:21PM 36.6992 -93.9922 39° Northeast 444 511 35,000  Level Kansas City Center
04:22PM 36.7964 -93.8953 39° Northeast 445 512 35,000  Level Kansas City Center
04:23PM 36.9139 -93.7781 39° Northeast 448 516 35,000  Level Kansas City Center
04:24PM 36.9983 -93.6906 40° Northeast 447 514 35,000  Level Kansas City Center
04:25PM 37.0967 -93.5925 38° Northeast 450 518 35,000  Level Kansas City Center
04:26PM 37.2139 -93.4742 39° Northeast 451 519 35,000  Level Kansas City Center
04:27PM 37.3153 -93.3786 37° Northeast 452 520 35,000  Level Kansas City Center
04:28PM 37.4164 -93.2767 39° Northeast 461 531 35,000  Level Kansas City Center
04:29PM 37.5214 -93.1797 36° Northeast 465 535 35,000  Level Kansas City Center
04:30PM 37.6272 -93.0839 36° Northeast 466 536 35,000  Level Kansas City Center
04:31PM 37.7317 -92.9867 36° Northeast 464 534 35,000  Level Kansas City Center
04:32PM 37.8342 -92.8908 36° Northeast 458 527 35,000  Level Kansas City Center
04:33PM 37.9597 -92.7742 36° Northeast 459 528 35,000  Level Kansas City Center
04:34PM 38.0661 -92.6717 37° Northeast 480 552 35,000  Level Kansas City Center
04:35PM 38.1708 -92.5761 36° Northeast 472 543 35,000  Level Kansas City Center
04:36PM 38.2797 -92.4717 37° Northeast 467 537 35,000  Level Kansas City Center
04:37PM 38.3833 -92.3731 37° Northeast 463 533 35,000  Level Kansas City Center
04:38PM 38.4856 -92.2739 37° Northeast 459 528 35,000  Level Kansas City Center
04:39PM 38.5872 -92.1764 37° Northeast 455 524 35,000  Level Kansas City Center
04:40PM 38.6914 -92.0817 35° Northeast 456 525 35,000  Level Kansas City Center
04:41PM 38.8156 -92.0722 North 447 514 35,000  Level Kansas City Center
04:42PM 38.9644 -92.0500 North 447 514 35,000  Level Kansas City Center
04:44PM 39.0867 -92.0306 North 445 512 35,000  Level Kansas City Center
04:45PM 39.2086 -92.0106 North 442 509 35,000  Level Kansas City Center
04:46PM 39.3403 -91.9872 North 445 512 35,000  Level Kansas City Center
04:47PM 39.4603 -91.9672 North 442 509 35,000  Level Kansas City Center
04:48PM 39.5808 -91.9472 North 441 507 35,000  Level Kansas City Center
04:49PM 39.7017 -91.9269 North 442 509 35,000  Level Kansas City Center
04:50PM 39.8458 -91.9228 North 438 504 35,000  Level Kansas City Center
04:51PM 39.9622 -91.9394 354° North 428 493 35,000  Level Kansas City Center
04:52PM 40.0800 -91.9528 355° North 428 493 35,000  Level Kansas City Center
04:53PM 40.1992 -91.9692 354° North 433 498 35,000  Level Kansas City Center
04:54PM 40.3183 -91.9425 10° North 443 510 35,000  Level Kansas City Center
04:55PM 40.4622 -91.9006 13° North 446 513 35,000  Level Kansas City Center
04:56PM 40.5858 -91.8658 12° North 455 524 35,000 -180 Level Kansas City Center
04:56PM 40.6572 -91.8219 25° Northeast 471 542 34,800 -780 Descending Chicago Center
04:58PM 40.7739 -91.7450 27° Northeast 474 545 33,800 -900 Descending Chicago Center
04:59PM 40.8917 -91.6708 25° Northeast 476 548 33,000 -720 Descending Chicago Center
05:00PM 41.0136 -91.5978 24° Northeast 470 541 32,400 -840 Descending Chicago Center
05:01PM 41.1564 -91.5086 25° Northeast 472 543 31,300 -720 Descending Chicago Center
05:02PM 41.2603 -91.4414 26° Northeast 467 537 31,000 -180 Descending Chicago Center
05:03PM 41.3750 -91.3692 25° Northeast 463 533 31,000  Level Chicago Center
05:04PM 41.5064 -91.2861 25° Northeast 464 534 31,000  Level Chicago Center
05:05PM 41.6181 -91.2144 26° Northeast 425 489 31,000  Level Chicago Center
05:06PM 41.7183 -91.1506 25° Northeast 406 467 31,000  Level Chicago Center
05:07PM 41.8192 -91.0867 25° Northeast 405 466 31,000  Level Chicago Center
05:08PM 41.9411 -91.0094 25° Northeast 409 471 31,000  Level Chicago Center
05:09PM 42.0428 -90.9408 27° Northeast 412 474 31,000  Level Chicago Center
05:10PM 42.1433 -90.8789 25° Northeast 406 467 31,000  Level Chicago Center
05:11PM 42.2494 -90.8772 North 389 448 31,000 -180 Level Chicago Center
05:12PM 42.3483 -90.9169 343° North 377 434 30,700 -720 Descending Chicago Center
05:13PM 42.4656 -90.9625 344° North 366 421 29,600 -1,020 Descending Chicago Center
05:14PM 42.5600 -90.9964 345° North 362 417 28,600 -1,020 Descending Chicago Center
05:15PM 42.6544 -91.0258 347° North 355 409 27,600 -1,020 Descending Chicago Center
05:16PM 42.7497 -91.0106 North 383 441 26,600 -1,020 Descending Chicago Center
05:17PM 42.8147 -90.8500 61° Northeast 412 474 25,500 -1,020 Descending Chicago Center
05:18PM 42.8644 -90.7133 64° Northeast 408 470 24,500 -780 Descending Chicago Center
05:19PM 42.9144 -90.5803 63° Northeast 399 459 24,000 -300 Descending Chicago Center
05:20PM 42.9097 -90.4325 92° East 408 470 24,000  Level Chicago Center
05:21PM 42.8753 -90.2725 106° East 439 505 24,000  Level Chicago Center
05:22PM 42.8325 -90.0706 106° East 463 533 24,000  Level Chicago Center
05:23PM 42.7772 -89.8972 113° Southeast 469 540 24,000 -660 Level Chicago Center
05:24PM 42.7325 -89.7300 110° East 471 542 22,700 -1,500 Descending Chicago Center
05:25PM 42.6878 -89.5678 111° Southeast 463 533 20,900 -1,740 Descending Chicago Center
05:27PM 42.6419 -89.4089 111° Southeast 455 524 19,200 -960 Descending Chicago Center
05:28PM 42.5989 -89.2536 111° Southeast 443 510 19,000 -720 Descending Chicago Center
05:29PM 42.5475 -89.0739 111° Southeast 440 506 17,800 -1,500 Descending Chicago Center
05:30PM 42.5017 -88.9200 112° Southeast 442 509 15,900 -1,860 Descending Chicago Center
05:31PM 42.4556 -88.7686 112° Southeast 439 505 14,000 -1,800 Descending Chicago Center
05:32PM 42.4119 -88.6261 112° Southeast 417 480 12,200 -1,680 Descending Chicago Center
05:33PM 42.3714 -88.4922 112° Southeast 390 449 10,500 -1,080 Descending Chicago Center
05:34PM 42.3272 -88.3647 115° Southeast 362 417 10,000 -300 Descending Chicago Center
05:35PM 42.2628 -88.2594 130° Southeast 364 419 10,000 -120 Level Chicago Center
05:36PM 42.1878 -88.1394 130° Southeast 352 405 9,800 -900 Descending Chicago Center
05:37PM 42.1228 -88.0647 140° Southeast 312 359 8,200 -1,380 Descending Chicago Center
05:38PM 42.0881 -87.9694 116° Southeast 308 354 7,000 -600 Descending Chicago Center
05:39PM 42.0906 -87.8633 88° East 288 331 7,000 -720 Level Chicago Center
05:40PM 42.0911 -87.7761 89° East 246 283 5,600 -1,680 Descending Chicago Center
05:41PM 42.0489 -87.7211 136° Southeast 224 258 3,600 -1,980 Descending Chicago Center